createdAt,value
2019-05-07T00:01:42.912Z,99.90
2019-05-07T00:06:44.104Z,99.90
2019-05-07T00:11:45.199Z,99.90
2019-05-07T00:16:46.316Z,99.90
2019-05-07T00:21:47.412Z,99.90
2019-05-07T00:26:48.512Z,99.90
2019-05-07T00:31:51.896Z,99.90
2019-05-07T00:36:54.533Z,99.90
2019-05-07T00:41:57.546Z,99.90
2019-05-07T00:46:58.643Z,99.90
2019-05-07T00:51:59.738Z,99.90
2019-05-07T00:57:02.955Z,99.90
2019-05-07T01:02:04.800Z,99.90
2019-05-07T01:07:05.994Z,99.90
2019-05-07T01:12:07.187Z,99.90
2019-05-07T01:17:08.329Z,99.90
2019-05-07T01:22:09.419Z,99.90
2019-05-07T01:27:12.794Z,99.90
2019-05-07T01:32:22.179Z,99.90
2019-05-07T01:37:23.503Z,99.90
2019-05-07T01:42:24.582Z,99.90
2019-05-07T01:47:25.687Z,99.90
2019-05-07T01:52:26.775Z,99.90
2019-05-07T01:57:27.865Z,99.90
2019-05-07T02:02:33.643Z,99.90
2019-05-07T02:07:36.635Z,99.90
2019-05-07T02:12:38.731Z,99.90
2019-05-07T02:17:39.851Z,99.90
2019-05-07T02:22:42.782Z,99.90
2019-05-07T02:27:43.943Z,99.90
2019-05-07T02:32:45.033Z,99.90
2019-05-07T02:37:52.596Z,99.90
2019-05-07T02:42:54.034Z,99.90
2019-05-07T02:47:54.310Z,99.90
2019-05-07T02:53:03.919Z,99.90
2019-05-07T02:58:03.904Z,99.90
2019-05-07T03:03:05.255Z,99.90
2019-05-07T03:08:06.567Z,99.90
2019-05-07T03:13:07.782Z,99.90
2019-05-07T03:18:09.094Z,99.90
2019-05-07T03:23:13.383Z,99.90
2019-05-07T03:28:14.687Z,99.90
2019-05-07T03:33:17.952Z,99.90
2019-05-07T03:38:19.125Z,99.90
2019-05-07T03:43:22.862Z,99.90
2019-05-07T03:48:25.432Z,99.90
2019-05-07T03:53:26.537Z,99.90
2019-05-07T03:58:27.648Z,99.90
2019-05-07T04:03:29.071Z,99.90
2019-05-07T04:08:33.073Z,99.90
2019-05-07T04:13:33.862Z,99.90
2019-05-07T04:18:35.162Z,99.90
2019-05-07T04:23:36.274Z,99.90
2019-05-07T04:28:55.850Z,99.90
2019-05-07T04:33:58.850Z,99.90
2019-05-07T04:39:02.689Z,99.90
2019-05-07T04:44:03.917Z,99.90
2019-05-07T04:49:05.363Z,99.90
2019-05-07T04:54:06.446Z,99.90
2019-05-07T04:59:07.541Z,99.90
2019-05-07T05:04:24.347Z,99.90
2019-05-07T05:09:12.556Z,99.90
2019-05-07T05:14:13.960Z,99.90
2019-05-07T05:19:15.083Z,99.90
2019-05-07T05:24:22.192Z,99.90
2019-05-07T05:29:23.480Z,99.90
2019-05-07T05:34:24.575Z,99.90
2019-05-07T05:39:25.692Z,99.90
2019-05-07T05:44:33.820Z,99.90
2019-05-07T05:49:34.911Z,99.90
2019-05-07T05:54:49.735Z,99.90
2019-05-07T05:59:55.471Z,99.90
2019-05-07T06:05:14.426Z,99.90
2019-05-07T06:10:17.412Z,99.90
2019-05-07T06:15:23.431Z,99.90
2019-05-07T06:20:29.155Z,99.90
2019-05-07T06:25:33.206Z,99.90
2019-05-07T06:30:33.839Z,99.90
2019-05-07T06:35:35.060Z,99.90
2019-05-07T06:40:46.904Z,99.90
2019-05-07T06:45:51.921Z,99.90
2019-05-07T06:50:55.671Z,99.90
2019-05-07T06:55:58.166Z,99.90
2019-05-07T07:01:07.217Z,99.90
2019-05-07T07:06:16.289Z,99.90
2019-05-07T07:11:19.291Z,99.90
2019-05-07T07:16:22.456Z,99.90
2019-05-07T07:21:23.488Z,99.90
2019-05-07T07:26:24.579Z,99.90
2019-05-07T07:31:31.866Z,99.90
2019-05-07T07:36:42.352Z,99.90
2019-05-07T07:41:45.450Z,99.90
2019-05-07T07:46:46.552Z,99.90
2019-05-07T07:51:47.648Z,99.90
2019-05-07T07:56:53.823Z,99.90
2019-05-07T08:01:58.562Z,99.90
2019-05-07T08:07:03.003Z,99.90
2019-05-07T08:12:04.721Z,94.40
2019-05-07T08:17:07.984Z,91.80
2019-05-07T08:22:09.181Z,78.40
2019-05-07T08:27:14.740Z,65.80
2019-05-07T08:32:27.720Z,58.20
2019-05-07T08:37:28.957Z,65.90
2019-05-07T08:42:32.055Z,70.50
2019-05-07T08:47:42.524Z,84.20
2019-05-07T08:52:43.743Z,70.30
2019-05-07T08:57:45.970Z,65.50
2019-05-07T09:02:47.341Z,61.60
2019-05-07T09:07:48.436Z,58.50
2019-05-07T09:12:49.524Z,56.00
2019-05-07T09:17:52.545Z,53.20
2019-05-07T09:22:53.839Z,53.70
2019-05-07T09:27:55.252Z,50.90
2019-05-07T09:32:58.358Z,45.90
2019-05-07T09:37:59.447Z,44.00
2019-05-07T09:43:02.366Z,44.10
2019-05-07T09:48:03.756Z,34.70
2019-05-07T09:53:05.063Z,36.30
2019-05-07T09:58:06.152Z,35.30
2019-05-07T10:03:07.367Z,36.40
2019-05-07T10:08:08.676Z,36.50
2019-05-07T10:13:17.692Z,39.20
2019-05-07T10:18:19.204Z,37.70
2019-05-07T10:23:22.773Z,33.10
2019-05-07T10:28:23.613Z,32.60
2019-05-07T10:33:24.791Z,32.70
2019-05-07T10:38:25.868Z,35.80
2019-05-07T10:43:27.071Z,36.40
2019-05-07T10:48:42.017Z,36.30
2019-05-07T10:53:43.421Z,37.70
2019-05-07T10:58:44.619Z,38.30
2019-05-07T11:03:45.735Z,35.60
2019-05-07T11:08:46.844Z,34.80
2019-05-07T11:13:47.946Z,35.20
2019-05-07T11:18:51.809Z,32.30
2019-05-07T11:23:53.078Z,30.10
2019-05-07T11:28:54.187Z,27.90
2019-05-07T11:33:55.401Z,27.40
2019-05-07T11:38:56.501Z,28.10
2019-05-07T11:44:01.647Z,31.30
2019-05-07T11:49:16.692Z,30.00
2019-05-07T11:54:17.871Z,30.30
2019-05-07T11:59:18.977Z,32.80
2019-05-07T12:04:20.101Z,29.80
2019-05-07T12:09:21.781Z,25.40
2019-05-07T12:14:30.914Z,23.10
2019-05-07T12:19:26.116Z,25.40
2019-05-07T12:24:27.230Z,25.40
2019-05-07T12:29:28.327Z,25.50
2019-05-07T12:34:31.895Z,23.20
2019-05-07T12:39:33.148Z,23.40
2019-05-07T12:44:34.254Z,25.50
2019-05-07T12:49:35.359Z,23.10
2019-05-07T12:54:47.337Z,23.40
2019-05-07T12:59:49.701Z,24.00
2019-05-07T13:04:52.138Z,21.70
2019-05-07T13:09:53.876Z,23.20
2019-05-07T13:14:54.979Z,25.00
2019-05-07T13:19:56.109Z,23.40
2019-05-07T13:24:57.220Z,22.20
2019-05-07T13:29:58.336Z,20.90
2019-05-07T13:35:02.713Z,21.30
2019-05-07T13:40:06.786Z,20.70
2019-05-07T13:45:15.994Z,19.60
2019-05-07T13:50:17.298Z,21.60
2019-05-07T13:55:18.586Z,23.40
2019-05-07T14:00:32.453Z,25.60
2019-05-07T14:05:33.749Z,27.50
2019-05-07T14:10:35.089Z,28.50
2019-05-07T14:15:36.184Z,28.30
2019-05-07T14:20:37.286Z,24.70
2019-05-07T14:25:38.402Z,23.70
2019-05-07T14:30:41.966Z,22.50
2019-05-07T14:35:44.392Z,22.40
2019-05-07T14:40:45.612Z,22.70
2019-05-07T14:45:46.908Z,22.00
2019-05-07T14:50:48.216Z,21.10
2019-05-07T14:55:49.423Z,20.80
2019-05-07T15:00:51.829Z,23.00
2019-05-07T15:05:53.157Z,22.10
2019-05-07T15:10:54.477Z,22.00
2019-05-07T15:15:55.635Z,20.60
2019-05-07T15:20:56.756Z,21.70
2019-05-07T15:25:57.952Z,21.30
2019-05-07T15:31:02.813Z,21.40
2019-05-07T15:36:06.494Z,21.00
2019-05-07T15:41:07.390Z,21.20
2019-05-07T15:46:08.697Z,21.20
2019-05-07T15:51:11.752Z,23.10
2019-05-07T15:56:12.895Z,24.00
2019-05-07T16:01:14.113Z,22.80
2019-05-07T16:06:15.247Z,23.20
2019-05-07T16:11:16.456Z,23.50
2019-05-07T16:16:17.565Z,23.40
2019-05-07T16:21:18.727Z,22.80
2019-05-07T16:26:21.896Z,25.30
2019-05-07T16:31:24.730Z,26.60
2019-05-07T16:36:25.912Z,25.00
2019-05-07T16:41:27.040Z,27.30
2019-05-07T16:46:28.151Z,27.40
2019-05-07T16:51:29.266Z,28.90
2019-05-07T16:56:30.383Z,31.00
2019-05-07T17:01:32.440Z,31.10
2019-05-07T17:06:33.823Z,32.40
2019-05-07T17:11:34.968Z,33.30
2019-05-07T17:16:36.289Z,34.90
2019-05-07T17:21:37.417Z,36.80
2019-05-07T17:26:38.694Z,37.90
2019-05-07T17:31:39.798Z,37.90
2019-05-07T17:36:42.328Z,37.40
2019-05-07T17:41:43.685Z,37.10
2019-05-07T17:46:46.192Z,36.60
2019-05-07T17:51:47.627Z,36.40
2019-05-07T17:56:48.741Z,39.40
2019-05-07T18:01:54.938Z,42.90
2019-05-07T18:06:56.129Z,45.10
2019-05-07T18:11:57.566Z,47.70
2019-05-07T18:17:02.107Z,49.20
2019-05-07T18:22:03.916Z,51.20
2019-05-07T18:27:07.139Z,52.90
2019-05-07T18:32:08.369Z,53.30
2019-05-07T18:37:09.795Z,56.60
2019-05-07T18:42:12.703Z,60.40
2019-05-07T18:47:14.174Z,74.20
2019-05-07T18:52:15.290Z,99.90
2019-05-07T18:57:16.438Z,99.90
2019-05-07T19:02:17.783Z,99.90
2019-05-07T19:07:19.025Z,99.90
2019-05-07T19:12:22.422Z,99.90
2019-05-07T19:17:25.644Z,99.90
2019-05-07T19:22:27.036Z,99.90
2019-05-07T19:27:28.365Z,99.90
2019-05-07T19:32:32.113Z,99.90
2019-05-07T19:37:32.930Z,99.90
2019-05-07T19:42:34.048Z,99.90
2019-05-07T19:47:35.202Z,99.90
2019-05-07T19:52:36.524Z,99.90
2019-05-07T19:57:45.385Z,99.90
2019-05-07T20:02:48.463Z,99.90
2019-05-07T20:07:53.326Z,99.90
2019-05-07T20:12:53.080Z,99.90
2019-05-07T20:17:54.282Z,99.90
2019-05-07T20:22:55.445Z,99.90
2019-05-07T20:28:02.188Z,99.90
2019-05-07T20:33:03.701Z,99.90
2019-05-07T20:38:05.058Z,99.90
2019-05-07T20:43:06.206Z,99.90
2019-05-07T20:48:07.338Z,98.10
2019-05-07T20:53:08.450Z,96.60
2019-05-07T20:58:09.658Z,96.30
2019-05-07T21:03:20.080Z,96.80
2019-05-07T21:08:22.746Z,96.30
2019-05-07T21:13:30.810Z,95.40
2019-05-07T21:18:27.511Z,95.10
2019-05-07T21:23:28.726Z,94.20
2019-05-07T21:28:32.163Z,92.00
2019-05-07T21:33:32.988Z,90.90
2019-05-07T21:38:34.085Z,90.40
2019-05-07T21:43:35.355Z,89.30
2019-05-07T21:48:36.575Z,89.10
2019-05-07T21:53:39.584Z,90.30
2019-05-07T21:58:45.658Z,90.60
2019-05-07T22:03:48.683Z,91.10
2019-05-07T22:08:54.425Z,91.20
2019-05-07T22:13:55.428Z,91.20
2019-05-07T22:18:56.555Z,90.10
2019-05-07T22:23:57.674Z,89.10
2019-05-07T22:28:58.774Z,87.30
2019-05-07T22:34:07.514Z,88.30
2019-05-07T22:39:08.710Z,90.30
2019-05-07T22:44:11.833Z,88.60
2019-05-07T22:49:13.044Z,88.40
2019-05-07T22:54:14.149Z,89.60
2019-05-07T22:59:15.231Z,88.00
2019-05-07T23:04:16.351Z,87.90
2019-05-07T23:09:17.450Z,87.00
2019-05-07T23:14:18.567Z,87.10
2019-05-07T23:19:21.836Z,88.30
2019-05-07T23:24:24.900Z,86.70
2019-05-07T23:29:25.702Z,87.30
2019-05-07T23:34:26.788Z,85.50
2019-05-07T23:39:36.811Z,86.20
2019-05-07T23:44:38.004Z,87.20
2019-05-07T23:49:39.096Z,90.00
2019-05-07T23:54:42.443Z,90.40
2019-05-07T23:59:43.177Z,91.40
